createdAt,value
2023-04-30T00:00:35.763Z,18.58
2023-04-30T00:03:02.468Z,18.98
2023-04-30T00:05:28.988Z,26.55
2023-04-30T00:07:55.364Z,19.00
2023-04-30T00:10:21.771Z,20.65
2023-04-30T00:12:48.156Z,19.05
2023-04-30T00:15:14.694Z,21.35
2023-04-30T00:17:41.261Z,20.25
2023-04-30T00:20:08.324Z,20.13
2023-04-30T00:22:34.888Z,22.98
2023-04-30T00:25:01.514Z,20.80
2023-04-30T00:27:28.134Z,16.77
2023-04-30T00:29:55.557Z,19.08
2023-04-30T00:32:22.413Z,21.48
2023-04-30T00:34:49.001Z,19.63
2023-04-30T00:37:15.546Z,16.40
2023-04-30T00:39:41.921Z,22.55
2023-04-30T00:42:08.320Z,16.60
2023-04-30T00:44:34.740Z,16.00
2023-04-30T00:47:01.205Z,20.08
2023-04-30T00:49:27.637Z,20.30
2023-04-30T00:51:54.493Z,17.77
2023-04-30T00:54:21.410Z,18.27
2023-04-30T00:56:47.841Z,24.17
2023-04-30T00:59:14.288Z,21.17
2023-04-30T01:01:41.170Z,23.05
2023-04-30T01:04:07.622Z,22.08
2023-04-30T01:06:34.260Z,19.42
2023-04-30T01:09:01.120Z,18.05
2023-04-30T01:12:01.894Z,20.77
2023-04-30T01:14:34.025Z,19.88
2023-04-30T01:17:06.691Z,22.85
2023-04-30T01:19:43.665Z,21.13
2023-04-30T01:22:30.282Z,21.25
2023-04-30T01:25:08.953Z,17.17
2023-04-30T01:28:06.859Z,29.75
2023-04-30T01:30:34.568Z,17.00
2023-04-30T01:33:01.326Z,21.15
2023-04-30T01:35:41.745Z,19.48
2023-04-30T01:38:28.797Z,17.17
2023-04-30T01:41:04.881Z,18.10
2023-04-30T01:43:44.967Z,21.50
2023-04-30T01:46:21.623Z,18.27
2023-04-30T01:49:13.656Z,20.63
2023-04-30T01:51:42.186Z,20.80
2023-04-30T01:54:19.454Z,15.82
2023-04-30T01:56:52.193Z,18.10
2023-04-30T01:59:18.908Z,20.52
2023-04-30T02:01:45.357Z,18.13
2023-04-30T02:04:11.721Z,18.25
2023-04-30T02:06:38.189Z,17.55
2023-04-30T02:09:06.858Z,19.85
2023-04-30T02:11:33.252Z,20.52
2023-04-30T02:13:59.616Z,18.10
2023-04-30T02:16:26.085Z,17.45
2023-04-30T02:18:52.552Z,18.42
2023-04-30T02:21:19.318Z,15.68
2023-04-30T02:23:45.913Z,16.10
2023-04-30T02:26:12.304Z,17.60
2023-04-30T02:28:38.666Z,16.10
2023-04-30T02:31:05.101Z,14.88
2023-04-30T02:33:31.686Z,18.85
2023-04-30T02:35:59.793Z,17.52
2023-04-30T02:38:26.455Z,19.98
2023-04-30T02:40:53.067Z,17.95
2023-04-30T02:43:19.443Z,21.15
2023-04-30T02:45:45.810Z,23.30
2023-04-30T02:48:12.521Z,16.15
2023-04-30T02:50:38.978Z,17.05
2023-04-30T02:53:05.394Z,16.50
2023-04-30T02:55:32.696Z,18.05
2023-04-30T02:57:59.048Z,14.57
2023-04-30T03:00:25.424Z,17.13
2023-04-30T03:02:51.923Z,15.20
2023-04-30T03:05:18.436Z,15.20
2023-04-30T03:07:44.840Z,16.10
2023-04-30T03:10:11.488Z,13.63
2023-04-30T03:12:37.842Z,15.68
2023-04-30T03:15:04.670Z,15.40
2023-04-30T03:17:31.063Z,18.73
2023-04-30T03:19:57.549Z,13.20
2023-04-30T03:22:26.482Z,17.00
2023-04-30T03:24:54.153Z,13.25
2023-04-30T03:27:20.867Z,15.93
2023-04-30T03:29:47.221Z,15.13
2023-04-30T03:32:13.629Z,15.75
2023-04-30T03:34:40.006Z,14.60
2023-04-30T03:37:06.389Z,15.63
2023-04-30T03:39:32.762Z,18.80
2023-04-30T03:41:59.140Z,14.20
2023-04-30T03:44:25.562Z,14.90
2023-04-30T03:46:51.910Z,15.40
2023-04-30T03:49:18.284Z,14.02
2023-04-30T03:51:44.955Z,15.63
2023-04-30T03:54:11.306Z,16.10
2023-04-30T03:56:38.098Z,14.65
2023-04-30T03:59:05.402Z,14.63
2023-04-30T04:01:31.796Z,19.92
2023-04-30T04:03:58.849Z,14.95
2023-04-30T04:06:25.357Z,19.02
2023-04-30T04:08:51.803Z,14.90
2023-04-30T04:11:18.221Z,15.25
2023-04-30T04:13:44.585Z,14.40
2023-04-30T04:16:11.222Z,16.23
2023-04-30T04:18:37.686Z,15.50
2023-04-30T04:21:04.308Z,20.35
2023-04-30T04:23:30.727Z,18.05
2023-04-30T04:25:57.523Z,15.07
2023-04-30T04:28:24.087Z,16.75
2023-04-30T04:30:50.464Z,15.25
2023-04-30T04:33:17.261Z,16.48
2023-04-30T04:35:43.672Z,16.13
2023-04-30T04:38:10.113Z,16.65
2023-04-30T04:40:37.207Z,14.73
2023-04-30T04:43:03.751Z,16.35
2023-04-30T04:45:31.376Z,16.85
2023-04-30T04:47:57.796Z,19.33
2023-04-30T04:50:24.400Z,17.30
2023-04-30T04:52:50.873Z,17.33
2023-04-30T04:55:17.621Z,16.42
2023-04-30T04:57:43.984Z,16.88
2023-04-30T05:00:11.718Z,15.88
2023-04-30T05:02:38.191Z,16.88
2023-04-30T05:05:04.888Z,14.65
2023-04-30T05:07:31.547Z,18.25
2023-04-30T05:09:57.891Z,18.30
2023-04-30T05:12:24.321Z,17.73
2023-04-30T05:14:51.235Z,16.65
2023-04-30T05:17:17.696Z,20.83
2023-04-30T05:19:44.182Z,17.77
2023-04-30T05:22:10.808Z,17.63
2023-04-30T05:24:37.226Z,17.15
2023-04-30T05:27:05.441Z,19.60
2023-04-30T05:29:31.803Z,21.02
2023-04-30T05:31:58.312Z,21.48
2023-04-30T05:34:24.810Z,21.13
2023-04-30T05:36:51.365Z,21.48
2023-04-30T05:39:17.773Z,22.80
2023-04-30T05:41:44.291Z,21.05
2023-04-30T05:44:10.735Z,21.38
2023-04-30T05:46:37.180Z,21.05
2023-04-30T05:49:03.720Z,22.75
2023-04-30T05:51:30.214Z,25.50
2023-04-30T05:53:57.488Z,23.17
2023-04-30T05:56:24.805Z,25.65
2023-04-30T05:58:52.476Z,22.27
2023-04-30T06:01:22.170Z,19.13
2023-04-30T06:03:48.720Z,20.00
2023-04-30T06:06:15.246Z,23.27
2023-04-30T06:08:45.337Z,23.65
2023-04-30T06:11:12.935Z,23.50
2023-04-30T06:13:39.677Z,21.85
2023-04-30T06:16:07.281Z,24.63
2023-04-30T06:18:33.870Z,19.27
2023-04-30T06:21:00.413Z,23.40
2023-04-30T06:23:26.811Z,17.77
2023-04-30T06:25:53.211Z,20.13
2023-04-30T06:28:19.638Z,20.95
2023-04-30T06:30:46.183Z,23.45
2023-04-30T06:33:12.547Z,21.90
2023-04-30T06:35:39.009Z,18.73
2023-04-30T06:38:05.441Z,20.15
2023-04-30T06:40:31.823Z,22.42
2023-04-30T06:42:58.338Z,16.58
2023-04-30T06:45:24.766Z,19.38
2023-04-30T06:47:51.937Z,19.60
2023-04-30T06:50:18.760Z,17.08
2023-04-30T06:52:45.169Z,17.05
2023-04-30T06:55:11.550Z,19.77
2023-04-30T06:57:37.940Z,13.98
2023-04-30T07:00:06.421Z,18.20
2023-04-30T07:02:33.201Z,13.63
2023-04-30T07:04:59.681Z,21.17
2023-04-30T07:07:26.190Z,17.05
2023-04-30T07:09:53.762Z,19.33
2023-04-30T07:12:21.331Z,11.73
2023-04-30T07:14:47.814Z,14.45
2023-04-30T07:17:14.207Z,18.83
2023-04-30T07:19:40.655Z,15.88
2023-04-30T07:22:07.071Z,16.90
2023-04-30T07:24:34.179Z,14.00
2023-04-30T07:27:03.152Z,15.13
2023-04-30T07:29:30.193Z,14.38
2023-04-30T07:31:56.873Z,11.27
2023-04-30T07:34:23.372Z,16.50
2023-04-30T07:36:50.269Z,10.23
2023-04-30T07:39:17.798Z,14.55
2023-04-30T07:41:44.230Z,14.38
2023-04-30T07:44:11.956Z,10.75
2023-04-30T07:46:38.550Z,10.75
2023-04-30T07:49:05.029Z,11.50
2023-04-30T07:51:32.906Z,10.98
2023-04-30T07:54:00.167Z,9.65
2023-04-30T07:56:26.704Z,10.43
2023-04-30T07:58:53.129Z,9.88
2023-04-30T08:01:19.504Z,11.40
2023-04-30T08:03:46.513Z,10.13
2023-04-30T08:06:13.136Z,8.82
2023-04-30T08:08:39.746Z,8.52
2023-04-30T08:11:06.250Z,7.20
2023-04-30T08:13:32.753Z,10.15
2023-04-30T08:15:59.139Z,7.25
2023-04-30T08:18:25.551Z,10.98
2023-04-30T08:20:52.044Z,8.25
2023-04-30T08:23:18.514Z,8.25
2023-04-30T08:25:44.920Z,8.45
2023-04-30T08:28:11.287Z,10.90
2023-04-30T08:30:37.743Z,5.32
2023-04-30T08:33:04.306Z,5.20
2023-04-30T08:35:30.805Z,6.85
2023-04-30T08:37:57.191Z,7.75
2023-04-30T08:40:33.805Z,7.13
2023-04-30T08:43:11.583Z,7.50
2023-04-30T08:45:38.059Z,7.88
2023-04-30T08:48:05.367Z,7.93
2023-04-30T08:50:32.106Z,7.13
2023-04-30T08:52:59.032Z,10.73
2023-04-30T08:55:27.451Z,7.07
2023-04-30T08:57:53.926Z,6.88
2023-04-30T09:00:20.489Z,5.57
2023-04-30T09:02:48.329Z,8.38
2023-04-30T09:05:15.679Z,7.78
2023-04-30T09:07:55.617Z,6.65
2023-04-30T09:10:32.320Z,9.05
2023-04-30T09:13:06.644Z,9.82
2023-04-30T09:15:34.683Z,7.82
2023-04-30T09:18:17.325Z,7.07
2023-04-30T09:20:58.416Z,8.85
2023-04-30T09:23:25.313Z,9.20
2023-04-30T09:25:51.757Z,9.43
2023-04-30T09:28:18.547Z,5.90
2023-04-30T09:30:45.132Z,8.07
2023-04-30T09:33:12.531Z,8.13
2023-04-30T09:35:41.587Z,7.80
2023-04-30T09:38:08.714Z,7.13
2023-04-30T09:40:40.342Z,6.88
2023-04-30T09:45:48.370Z,6.05
2023-04-30T09:48:18.927Z,5.80
2023-04-30T09:50:46.097Z,8.45
2023-04-30T09:53:14.236Z,9.07
2023-04-30T09:55:45.796Z,8.75
2023-04-30T09:58:12.921Z,7.68
2023-04-30T10:00:39.955Z,7.43
2023-04-30T10:03:11.700Z,4.88
2023-04-30T10:08:13.807Z,6.45
2023-04-30T10:10:43.225Z,8.85
2023-04-30T10:13:11.818Z,8.07
2023-04-30T10:15:47.862Z,9.57
2023-04-30T10:18:23.877Z,11.02
2023-04-30T10:20:51.809Z,8.75
2023-04-30T10:23:18.511Z,11.10
2023-04-30T10:25:45.551Z,10.88
2023-04-30T10:28:12.602Z,9.15
2023-04-30T10:30:39.186Z,10.55
2023-04-30T10:33:49.649Z,9.98
2023-04-30T10:36:38.496Z,9.13
2023-04-30T10:39:05.219Z,8.02
2023-04-30T10:41:31.947Z,8.68
2023-04-30T10:44:02.311Z,8.80
2023-04-30T10:46:29.060Z,9.02
2023-04-30T10:48:55.767Z,8.80
2023-04-30T10:51:22.642Z,7.15
2023-04-30T10:53:51.340Z,11.80
2023-04-30T10:56:32.270Z,7.13
2023-04-30T10:59:01.188Z,9.45
2023-04-30T11:01:28.383Z,9.10
2023-04-30T11:04:10.946Z,9.90
2023-04-30T11:06:52.546Z,6.30
2023-04-30T11:09:18.998Z,14.90
2023-04-30T11:11:46.465Z,7.97
2023-04-30T11:14:13.391Z,14.40
2023-04-30T11:16:41.286Z,6.40
2023-04-30T11:19:13.243Z,9.25
2023-04-30T11:22:05.302Z,9.15
2023-04-30T11:24:59.757Z,7.90
2023-04-30T11:27:30.832Z,8.70
2023-04-30T11:29:58.286Z,6.97
2023-04-30T11:32:27.433Z,8.80
2023-04-30T11:34:54.614Z,6.82
2023-04-30T11:37:43.676Z,8.23
2023-04-30T11:40:11.966Z,6.32
2023-04-30T11:42:39.821Z,6.25
2023-04-30T11:45:23.662Z,7.18
2023-04-30T11:47:52.040Z,7.65
2023-04-30T11:50:29.408Z,7.40
2023-04-30T11:52:57.350Z,7.80
2023-04-30T11:55:25.298Z,10.40
2023-04-30T11:57:55.687Z,11.02
2023-04-30T12:00:27.729Z,8.73
2023-04-30T12:02:56.122Z,9.35
2023-04-30T12:05:26.769Z,6.93
2023-04-30T12:07:57.511Z,7.55
2023-04-30T12:10:25.671Z,6.45
2023-04-30T12:12:53.238Z,7.03
2023-04-30T12:15:26.208Z,6.97
2023-04-30T12:17:54.644Z,5.65
2023-04-30T12:20:22.522Z,5.75
2023-04-30T12:22:49.148Z,7.00
2023-04-30T12:25:17.863Z,5.25
2023-04-30T12:27:51.175Z,8.45
2023-04-30T12:30:22.029Z,7.05
2023-04-30T12:32:53.367Z,5.78
2023-04-30T12:35:21.559Z,6.28
2023-04-30T12:37:52.586Z,8.45
2023-04-30T12:40:27.059Z,6.30
2023-04-30T12:43:01.241Z,5.78
2023-04-30T12:45:52.847Z,8.38
2023-04-30T12:48:21.212Z,6.20
2023-04-30T12:50:53.625Z,8.13
2023-04-30T12:53:21.568Z,23.48
2023-04-30T12:56:15.882Z,9.15
2023-04-30T12:58:45.441Z,11.63
2023-04-30T13:01:15.308Z,8.38
2023-04-30T13:03:42.314Z,7.95
2023-04-30T13:06:10.440Z,6.72
2023-04-30T13:08:45.669Z,9.13
2023-04-30T13:11:24.154Z,10.07
2023-04-30T13:13:50.585Z,7.18
2023-04-30T13:16:17.186Z,10.35
2023-04-30T13:18:43.949Z,6.80
2023-04-30T13:21:10.687Z,6.88
2023-04-30T13:23:48.626Z,7.65
2023-04-30T13:26:18.820Z,7.85
2023-04-30T13:28:45.242Z,5.97
2023-04-30T13:31:11.677Z,5.45
2023-04-30T13:33:38.145Z,7.10
2023-04-30T13:36:04.564Z,6.70
2023-04-30T13:38:30.931Z,5.93
2023-04-30T13:40:57.352Z,4.60
2023-04-30T13:43:23.862Z,5.10
2023-04-30T13:45:51.196Z,4.50
2023-04-30T13:48:17.580Z,6.70
2023-04-30T13:50:44.041Z,5.70
2023-04-30T13:53:10.470Z,3.90
2023-04-30T13:55:36.906Z,4.75
2023-04-30T13:58:03.559Z,4.05
2023-04-30T14:00:30.017Z,5.38
2023-04-30T14:02:56.518Z,3.83
2023-04-30T14:05:23.001Z,3.78
2023-04-30T14:07:49.367Z,4.78
2023-04-30T14:10:15.822Z,5.22
2023-04-30T14:12:42.249Z,5.68
2023-04-30T14:15:09.376Z,6.03
2023-04-30T14:17:35.987Z,5.25
2023-04-30T14:20:02.543Z,5.43
2023-04-30T14:22:29.005Z,5.18
2023-04-30T14:24:55.380Z,7.80
2023-04-30T14:27:21.962Z,5.13
2023-04-30T14:29:48.407Z,5.20
2023-04-30T14:32:14.900Z,5.05
2023-04-30T14:34:41.451Z,4.07
2023-04-30T14:37:08.022Z,5.65
2023-04-30T14:39:34.410Z,4.07
2023-04-30T14:42:01.682Z,3.15
2023-04-30T14:44:28.093Z,7.22
2023-04-30T14:46:54.610Z,6.00
2023-04-30T14:49:20.999Z,7.68
2023-04-30T14:51:47.560Z,5.72
2023-04-30T14:54:13.987Z,6.30
2023-04-30T14:56:41.033Z,6.40
2023-04-30T14:59:07.473Z,4.25
2023-04-30T15:01:33.897Z,4.65
2023-04-30T15:04:00.580Z,3.45
2023-04-30T15:06:27.353Z,8.02
2023-04-30T15:08:53.923Z,8.05
2023-04-30T15:11:20.301Z,8.10
2023-04-30T15:13:46.847Z,4.90
2023-04-30T15:16:13.397Z,5.72
2023-04-30T15:18:40.341Z,6.70
2023-04-30T15:21:06.755Z,5.70
2023-04-30T15:23:33.626Z,7.82
2023-04-30T15:26:00.789Z,5.82
2023-04-30T15:28:27.273Z,6.75
2023-04-30T15:30:54.044Z,6.78
2023-04-30T15:33:20.668Z,6.15
2023-04-30T15:35:47.828Z,13.00
2023-04-30T15:38:14.260Z,8.45
2023-04-30T15:40:40.647Z,8.93
2023-04-30T15:43:07.727Z,12.07
2023-04-30T15:45:34.158Z,7.50
2023-04-30T15:48:00.849Z,5.63
2023-04-30T15:50:27.841Z,7.50
2023-04-30T15:52:54.298Z,8.10
2023-04-30T15:55:20.683Z,7.75
2023-04-30T15:57:47.314Z,9.38
2023-04-30T16:00:15.243Z,8.07
2023-04-30T16:02:41.878Z,10.45
2023-04-30T16:05:08.833Z,6.60
2023-04-30T16:07:35.402Z,6.07
2023-04-30T16:10:02.643Z,8.25
2023-04-30T16:12:29.207Z,5.95
2023-04-30T16:14:55.743Z,5.47
2023-04-30T16:17:22.188Z,9.13
2023-04-30T16:19:48.611Z,6.45
2023-04-30T16:22:17.059Z,5.97
2023-04-30T16:24:43.510Z,9.18
2023-04-30T16:27:09.983Z,8.15
2023-04-30T16:29:36.380Z,8.35
2023-04-30T16:32:02.909Z,9.70
2023-04-30T16:34:29.444Z,7.93
2023-04-30T16:36:56.081Z,5.25
2023-04-30T16:39:22.657Z,6.13
2023-04-30T16:41:49.065Z,5.30
2023-04-30T16:44:15.570Z,6.63
2023-04-30T16:46:42.013Z,5.53
2023-04-30T16:49:08.454Z,6.70
2023-04-30T16:51:34.911Z,8.07
2023-04-30T16:54:01.317Z,4.90
2023-04-30T16:56:27.723Z,3.75
2023-04-30T16:58:54.668Z,4.10
2023-04-30T17:01:21.072Z,5.80
2023-04-30T17:03:48.901Z,3.60
2023-04-30T17:06:15.551Z,6.47
2023-04-30T17:08:42.031Z,6.93
2023-04-30T17:11:08.413Z,6.43
2023-04-30T17:13:37.350Z,3.95
2023-04-30T17:16:03.890Z,6.43
2023-04-30T17:18:30.380Z,4.45
2023-04-30T17:20:56.855Z,5.65
2023-04-30T17:23:25.452Z,6.18
2023-04-30T17:25:51.891Z,5.32
2023-04-30T17:28:18.289Z,5.47
2023-04-30T17:30:45.183Z,5.05
2023-04-30T17:33:11.696Z,7.95
2023-04-30T17:35:38.115Z,5.30
2023-04-30T17:38:04.551Z,4.13
2023-04-30T17:40:31.731Z,4.30
2023-04-30T17:42:58.145Z,3.85
2023-04-30T17:45:26.681Z,3.90
2023-04-30T17:47:53.210Z,6.47
2023-04-30T17:50:19.677Z,7.35
2023-04-30T17:52:46.670Z,3.95
2023-04-30T17:55:13.692Z,7.13
2023-04-30T17:57:40.169Z,2.75
2023-04-30T18:00:07.264Z,25.88
2023-04-30T18:02:33.665Z,6.78
2023-04-30T18:05:00.045Z,7.18
2023-04-30T18:07:26.792Z,5.80
2023-04-30T18:09:53.523Z,6.53
2023-04-30T18:12:20.142Z,4.85
2023-04-30T18:14:46.627Z,3.90
2023-04-30T18:17:15.103Z,5.45
2023-04-30T18:19:44.441Z,4.68
2023-04-30T18:22:12.343Z,7.95
2023-04-30T18:24:39.116Z,4.95
2023-04-30T18:27:06.887Z,5.82
2023-04-30T18:29:33.970Z,6.50
2023-04-30T18:32:00.423Z,5.38
2023-04-30T18:34:28.123Z,6.78
2023-04-30T18:36:54.745Z,5.38
2023-04-30T18:39:22.362Z,4.85
2023-04-30T18:41:49.119Z,6.95
2023-04-30T18:44:15.630Z,6.25
2023-04-30T18:46:42.687Z,5.07
2023-04-30T18:49:09.400Z,6.22
2023-04-30T18:51:35.987Z,4.75
2023-04-30T18:54:02.437Z,6.25
2023-04-30T18:56:28.996Z,6.22
2023-04-30T18:58:55.639Z,4.00
2023-04-30T19:01:24.285Z,12.50
2023-04-30T19:03:50.953Z,5.35
2023-04-30T19:06:17.514Z,4.50
2023-04-30T19:08:46.377Z,4.75
2023-04-30T19:11:13.755Z,5.55
2023-04-30T19:13:40.287Z,4.60
2023-04-30T19:16:06.760Z,5.80
2023-04-30T19:18:34.919Z,4.63
2023-04-30T19:21:02.101Z,5.38
2023-04-30T19:23:30.715Z,6.22
2023-04-30T19:25:57.892Z,6.05
2023-04-30T19:28:24.322Z,5.47
2023-04-30T19:30:54.192Z,4.40
2023-04-30T19:33:21.601Z,5.32
2023-04-30T19:35:49.639Z,7.70
2023-04-30T19:38:16.134Z,5.82
2023-04-30T19:40:49.849Z,4.88
2023-04-30T19:43:16.452Z,5.72
2023-04-30T19:45:53.147Z,5.28
2023-04-30T19:48:21.784Z,4.57
2023-04-30T19:50:49.110Z,6.10
2023-04-30T19:53:16.470Z,5.28
2023-04-30T19:55:43.184Z,7.13
2023-04-30T19:58:09.754Z,6.00
2023-04-30T20:00:37.808Z,9.52
2023-04-30T20:03:05.411Z,4.93
2023-04-30T20:05:32.630Z,6.28
2023-04-30T20:07:59.554Z,4.78
2023-04-30T20:10:25.997Z,7.38
2023-04-30T20:12:53.444Z,5.32
2023-04-30T20:15:22.741Z,6.68
2023-04-30T20:17:50.603Z,6.55
2023-04-30T20:20:17.994Z,6.57
2023-04-30T20:22:44.434Z,6.35
2023-04-30T20:25:10.825Z,6.38
2023-04-30T20:27:37.231Z,4.30
2023-04-30T20:30:04.658Z,5.15
2023-04-30T20:32:31.640Z,5.32
2023-04-30T20:34:58.755Z,3.95
2023-04-30T20:37:25.242Z,5.15
2023-04-30T20:39:51.755Z,6.43
2023-04-30T20:42:19.232Z,4.38
2023-04-30T20:44:46.914Z,5.00
2023-04-30T20:47:14.359Z,6.00
2023-04-30T20:49:41.353Z,7.10
2023-04-30T20:52:07.798Z,7.50
2023-04-30T20:54:34.265Z,6.68
2023-04-30T20:57:00.790Z,4.03
2023-04-30T20:59:27.256Z,5.28
2023-04-30T21:01:53.961Z,8.60
2023-04-30T21:04:20.350Z,8.18
2023-04-30T21:06:46.815Z,5.53
2023-04-30T21:09:13.240Z,6.55
2023-04-30T21:11:40.417Z,5.93
2023-04-30T21:14:06.857Z,5.07
2023-04-30T21:16:33.316Z,6.85
2023-04-30T21:18:59.751Z,5.80
2023-04-30T21:21:27.420Z,6.88
2023-04-30T21:23:54.210Z,6.95
2023-04-30T21:26:21.566Z,8.55
2023-04-30T21:28:48.267Z,5.95
2023-04-30T21:31:15.100Z,6.82
2023-04-30T21:33:41.625Z,7.35
2023-04-30T21:36:08.086Z,5.75
2023-04-30T21:38:34.649Z,5.95
2023-04-30T21:41:01.384Z,6.10
2023-04-30T21:43:27.757Z,5.45
2023-04-30T21:45:54.161Z,4.38
2023-04-30T21:48:20.557Z,7.07
2023-04-30T21:50:47.821Z,3.60
2023-04-30T21:53:15.979Z,5.28
2023-04-30T21:55:42.434Z,5.25
2023-04-30T21:58:08.844Z,4.55
2023-04-30T22:00:35.902Z,7.50
2023-04-30T22:03:02.327Z,6.75
2023-04-30T22:05:28.812Z,8.07
2023-04-30T22:07:55.202Z,6.30
2023-04-30T22:10:21.625Z,7.53
2023-04-30T22:12:48.315Z,7.07
2023-04-30T22:15:14.971Z,8.30
2023-04-30T22:17:41.576Z,9.35
2023-04-30T22:20:09.777Z,5.32
2023-04-30T22:22:36.318Z,5.93
2023-04-30T22:25:02.937Z,6.82
2023-04-30T22:27:29.344Z,6.10
2023-04-30T22:29:55.935Z,8.15
2023-04-30T22:32:22.785Z,5.50
2023-04-30T22:34:50.525Z,5.22
2023-04-30T22:37:16.977Z,9.30
2023-04-30T22:39:43.374Z,6.85
2023-04-30T22:42:09.919Z,8.00
2023-04-30T22:44:36.444Z,6.95
2023-04-30T22:47:03.078Z,7.97
2023-04-30T22:49:31.974Z,6.57
2023-04-30T22:51:59.320Z,10.50
2023-04-30T22:54:25.864Z,6.45
2023-04-30T22:56:52.338Z,7.68
2023-04-30T22:59:18.795Z,6.05
2023-04-30T23:01:45.172Z,8.20
2023-04-30T23:04:12.585Z,6.80
2023-04-30T23:06:39.541Z,6.03
2023-04-30T23:09:05.933Z,5.25
2023-04-30T23:11:32.402Z,6.55
2023-04-30T23:13:58.820Z,11.32
2023-04-30T23:16:25.251Z,9.23
2023-04-30T23:18:51.858Z,8.40
2023-04-30T23:21:18.294Z,8.70
2023-04-30T23:23:44.794Z,6.75
2023-04-30T23:26:11.233Z,9.18
2023-04-30T23:28:37.954Z,6.88
2023-04-30T23:31:04.418Z,7.63
2023-04-30T23:33:30.897Z,9.82
2023-04-30T23:35:57.307Z,6.15
2023-04-30T23:38:23.709Z,6.07
2023-04-30T23:40:50.127Z,9.93
2023-04-30T23:43:16.535Z,8.73
2023-04-30T23:45:42.944Z,6.53
2023-04-30T23:48:10.336Z,8.95
2023-04-30T23:50:38.056Z,5.32
2023-04-30T23:53:04.527Z,6.68
2023-04-30T23:55:30.966Z,12.15
2023-04-30T23:57:57.446Z,9.48
